Meteo Giornale » Osservazioni meteo Colombia » Cartagena-Rafael Nunez
ore: 00:00 - Osservazioni Meteo Cartagena-Rafael Nunez
Lat. 10° 27' N Lon. 75° 31' W Alt. 1 metri s.l.m.
27 °C
Poco Nuvoloso
Temp. 24 Ore
27 °C
30 °C
Nord
3.7 Km/h
Dew point 26 °C
Umidità 94 %
Visibilità 10 Km
Il sole sorge alle ore 05:52
Il sole tramonta alle ore 18:11
| Data e Ora | Cielo e Fenomeni | T °C | DP °C | Um. % | Pres. hPa | Vis. km | Vento km/h | |
|---|---|---|---|---|---|---|---|---|
| Oggi h: 00:00 | Poco Nuvoloso | 27 | 26 | 94 | 1012 | 10 | N 3.7 | |
| Ieri h: 23:00 | Poco Nuvoloso | 27 | 27 | 100 | 1012 | 10 | N 5.5 | |
| Ieri h: 22:00 | Poco Nuvoloso | 28 | 28 | 100 | 1012 | 10 | N 5.5 | |
| Ieri h: 21:00 | Poco Nuvoloso | 28 | 28 | 100 | 1011 | 10 | N 5.5 | |
| Ieri h: 20:00 | Poco Nuvoloso | 28 | 28 | 100 | 1010 | 10 | O/SO 7.4 | |
| Ieri h: 19:00 | Nuvoloso | 28 | 28 | 100 | 1010 | 10 | O/SO 9.3 | |
| Ieri h: 18:00 | Nuvoloso | 29 | 28 | 94 | 1009 | 10 | O/SO 9.3 | |
| Ieri h: 17:00 | Coperto | 29 | 29 | 100 | 1009 | 10 | O 9.3 | |
| Ieri h: 16:00 | Sereno | 29 | 0 | 15 | 1009 | 10 | O/SO 9.3 | |
| Ieri h: 15:00 | Coperto | 29 | 29 | 100 | 1009 | 10 | O 9.3 | |
| Ieri h: 14:00 | Molto Nuvoloso | 30 | 29 | 94 | 1010 | 10 | O 11.1 | |
| Ieri h: 13:00 | Nuvoloso | 30 | 26 | 79 | 1011 | 10 | SO 11.1 | |
| Ieri h: 12:00 | Nuvoloso | 30 | 27 | 84 | 1011 | 10 | N 3.7 | |
| Ieri h: 11:00 | Sereno | 30 | 0 | 14 | 1011 | 10 | N 5.5 | |
| Ieri h: 10:00 | Nuvoloso | 29 | 28 | 94 | 1011 | 10 | N 5.5 | |
| Ieri h: 09:00 | Nuvoloso | 28 | 27 | 94 | 1011 | 10 | S 13 | |
| Ieri h: 08:00 | Molto Nuvoloso | 28 | 27 | 94 | 1010 | 10 | S 20.3 | |
| Ieri h: 07:00 | Pioviggine | 28 | 28 | 100 | 1009 | 10 | S 16.7 | |
| Ieri h: 06:00 | Molto Nuvoloso | 28 | 28 | 100 | 1008 | 10 | SE 9.3 | |
| Ieri h: 05:00 | Poco Nuvoloso | 28 | 0 | 16 | 1008 | 10 | S 9.3 | |
| Ieri h: 04:00 | Poco Nuvoloso | 27 | 0 | 17 | 1007 | 10 | N 3.7 | |
| Ieri h: 03:00 | Sereno | 27 | 26 | 94 | 1007 | 10 | N 5.5 | |
| Ieri h: 02:00 | Sereno | 28 | 25 | 83 | 1008 | 10 | N 3.7 | |
| Ieri h: 01:00 | Sereno | 28 | 25 | 83 | 1008 | 10 | N/NE 7.4 | |



